sensor_id;sensor_type;location;lat;lon;timestamp;P1;durP1;ratioP1;P2;durP2;ratioP2
29546;SDS011;40782;47.264;11.330;2022-10-15T00:01:53;6.55;;;5.85;;
29546;SDS011;40782;47.264;11.330;2022-10-15T00:04:21;8.70;;;6.68;;
29546;SDS011;40782;47.264;11.330;2022-10-15T00:06:48;7.32;;;6.63;;
29546;SDS011;40782;47.264;11.330;2022-10-15T00:09:15;7.70;;;6.90;;
29546;SDS011;40782;47.264;11.330;2022-10-15T00:11:42;8.23;;;6.95;;
29546;SDS011;40782;47.264;11.330;2022-10-15T00:14:10;9.18;;;7.22;;
29546;SDS011;40782;47.264;11.330;2022-10-15T00:16:38;9.25;;;7.20;;
29546;SDS011;40782;47.264;11.330;2022-10-15T00:19:06;6.95;;;6.10;;
29546;SDS011;40782;47.264;11.330;2022-10-15T00:21:35;7.43;;;6.57;;
29546;SDS011;40782;47.264;11.330;2022-10-15T00:24:03;6.05;;;5.43;;
29546;SDS011;40782;47.264;11.330;2022-10-15T00:26:31;7.93;;;6.15;;
29546;SDS011;40782;47.264;11.330;2022-10-15T00:28:59;8.50;;;6.63;;
29546;SDS011;40782;47.264;11.330;2022-10-15T00:31:28;9.48;;;6.93;;
29546;SDS011;40782;47.264;11.330;2022-10-15T00:33:59;7.00;;;5.93;;
29546;SDS011;40782;47.264;11.330;2022-10-15T00:36:28;6.50;;;5.80;;
29546;SDS011;40782;47.264;11.330;2022-10-15T00:38:57;7.43;;;6.72;;
29546;SDS011;40782;47.264;11.330;2022-10-15T00:41:25;6.80;;;6.10;;
29546;SDS011;40782;47.264;11.330;2022-10-15T00:43:55;6.30;;;5.80;;
29546;SDS011;40782;47.264;11.330;2022-10-15T00:46:25;7.75;;;6.93;;
29546;SDS011;40782;47.264;11.330;2022-10-15T00:48:56;7.05;;;6.25;;
29546;SDS011;40782;47.264;11.330;2022-10-15T00:51:28;7.07;;;6.00;;
29546;SDS011;40782;47.264;11.330;2022-10-15T00:54:00;6.95;;;6.25;;
29546;SDS011;40782;47.264;11.330;2022-10-15T00:56:28;6.60;;;5.30;;
29546;SDS011;40782;47.264;11.330;2022-10-15T00:58:57;5.68;;;5.10;;
29546;SDS011;40782;47.264;11.330;2022-10-15T01:01:25;6.70;;;5.25;;
29546;SDS011;40782;47.264;11.330;2022-10-15T01:03:53;7.18;;;5.25;;
29546;SDS011;40782;47.264;11.330;2022-10-15T01:06:23;7.25;;;5.35;;
29546;SDS011;40782;47.264;11.330;2022-10-15T01:08:51;5.63;;;5.10;;
29546;SDS011;40782;47.264;11.330;2022-10-15T01:11:31;6.07;;;5.47;;
29546;SDS011;40782;47.264;11.330;2022-10-15T01:14:07;9.05;;;5.88;;
29546;SDS011;40782;47.264;11.330;2022-10-15T01:16:45;7.05;;;5.97;;
29546;SDS011;40782;47.264;11.330;2022-10-15T01:19:23;8.30;;;5.38;;
29546;SDS011;40782;47.264;11.330;2022-10-15T01:22:00;6.40;;;5.78;;
29546;SDS011;40782;47.264;11.330;2022-10-15T01:27:32;7.15;;;5.63;;
29546;SDS011;40782;47.264;11.330;2022-10-15T01:30:04;7.35;;;6.05;;
29546;SDS011;40782;47.264;11.330;2022-10-15T01:32:52;7.97;;;6.53;;
29546;SDS011;40782;47.264;11.330;2022-10-15T01:38:26;7.43;;;6.68;;
29546;SDS011;40782;47.264;11.330;2022-10-15T01:41:07;7.55;;;6.53;;
29546;SDS011;40782;47.264;11.330;2022-10-15T01:43:37;8.55;;;6.85;;
29546;SDS011;40782;47.264;11.330;2022-10-15T01:46:11;7.10;;;6.43;;
29546;SDS011;40782;47.264;11.330;2022-10-15T01:48:45;6.65;;;6.05;;
29546;SDS011;40782;47.264;11.330;2022-10-15T01:51:14;8.52;;;6.55;;
29546;SDS011;40782;47.264;11.330;2022-10-15T01:53:44;7.45;;;6.75;;
29546;SDS011;40782;47.264;11.330;2022-10-15T01:56:14;8.70;;;6.82;;
29546;SDS011;40782;47.264;11.330;2022-10-15T01:58:45;6.85;;;6.25;;
29546;SDS011;40782;47.264;11.330;2022-10-15T02:01:15;6.70;;;5.97;;
29546;SDS011;40782;47.264;11.330;2022-10-15T02:03:43;7.10;;;5.78;;
29546;SDS011;40782;47.264;11.330;2022-10-15T02:06:15;6.63;;;5.50;;
29546;SDS011;40782;47.264;11.330;2022-10-15T02:08:51;7.47;;;5.90;;
29546;SDS011;40782;47.264;11.330;2022-10-15T02:11:27;7.60;;;6.00;;
29546;SDS011;40782;47.264;11.330;2022-10-15T02:14:02;8.85;;;6.10;;
29546;SDS011;40782;47.264;11.330;2022-10-15T02:16:37;6.78;;;5.30;;
29546;SDS011;40782;47.264;11.330;2022-10-15T02:19:11;8.80;;;5.60;;
29546;SDS011;40782;47.264;11.330;2022-10-15T02:21:44;6.60;;;5.60;;
29546;SDS011;40782;47.264;11.330;2022-10-15T02:24:18;9.45;;;6.82;;
29546;SDS011;40782;47.264;11.330;2022-10-15T02:26:50;9.93;;;7.03;;
29546;SDS011;40782;47.264;11.330;2022-10-15T02:29:20;10.02;;;6.43;;
29546;SDS011;40782;47.264;11.330;2022-10-15T02:31:50;7.18;;;6.47;;
29546;SDS011;40782;47.264;11.330;2022-10-15T02:34:21;9.07;;;6.78;;
29546;SDS011;40782;47.264;11.330;2022-10-15T02:36:53;7.88;;;6.65;;
29546;SDS011;40782;47.264;11.330;2022-10-15T02:39:22;8.80;;;6.75;;
29546;SDS011;40782;47.264;11.330;2022-10-15T02:41:51;9.10;;;7.63;;
29546;SDS011;40782;47.264;11.330;2022-10-15T02:44:19;8.23;;;7.38;;
29546;SDS011;40782;47.264;11.330;2022-10-15T02:46:46;8.68;;;7.53;;
29546;SDS011;40782;47.264;11.330;2022-10-15T02:49:14;8.60;;;6.78;;
29546;SDS011;40782;47.264;11.330;2022-10-15T02:51:42;8.00;;;6.45;;
29546;SDS011;40782;47.264;11.330;2022-10-15T02:54:10;8.45;;;6.15;;
29546;SDS011;40782;47.264;11.330;2022-10-15T02:56:37;7.32;;;5.97;;
29546;SDS011;40782;47.264;11.330;2022-10-15T02:59:05;7.65;;;6.53;;
29546;SDS011;40782;47.264;11.330;2022-10-15T03:01:33;8.38;;;6.45;;
29546;SDS011;40782;47.264;11.330;2022-10-15T03:04:00;7.45;;;6.43;;
29546;SDS011;40782;47.264;11.330;2022-10-15T03:06:28;6.88;;;6.10;;
29546;SDS011;40782;47.264;11.330;2022-10-15T03:08:56;7.15;;;6.45;;
29546;SDS011;40782;47.264;11.330;2022-10-15T03:11:24;7.78;;;6.55;;
29546;SDS011;40782;47.264;11.330;2022-10-15T03:13:51;7.72;;;6.97;;
29546;SDS011;40782;47.264;11.330;2022-10-15T03:16:18;8.20;;;6.88;;
29546;SDS011;40782;47.264;11.330;2022-10-15T03:18:46;7.45;;;6.75;;
29546;SDS011;40782;47.264;11.330;2022-10-15T03:21:13;8.43;;;7.47;;
29546;SDS011;40782;47.264;11.330;2022-10-15T03:23:40;8.95;;;7.32;;
29546;SDS011;40782;47.264;11.330;2022-10-15T03:26:09;7.60;;;6.57;;
29546;SDS011;40782;47.264;11.330;2022-10-15T03:28:36;8.23;;;7.40;;
29546;SDS011;40782;47.264;11.330;2022-10-15T03:31:04;9.88;;;7.43;;
29546;SDS011;40782;47.264;11.330;2022-10-15T03:33:31;8.52;;;7.70;;
29546;SDS011;40782;47.264;11.330;2022-10-15T03:35:59;8.93;;;7.97;;
29546;SDS011;40782;47.264;11.330;2022-10-15T03:38:26;8.18;;;7.20;;
29546;SDS011;40782;47.264;11.330;2022-10-15T03:40:53;10.15;;;7.57;;
29546;SDS011;40782;47.264;11.330;2022-10-15T03:43:23;8.48;;;7.10;;
29546;SDS011;40782;47.264;11.330;2022-10-15T03:45:51;10.82;;;7.20;;
29546;SDS011;40782;47.264;11.330;2022-10-15T03:48:18;9.93;;;6.70;;
29546;SDS011;40782;47.264;11.330;2022-10-15T03:50:45;8.30;;;7.20;;
29546;SDS011;40782;47.264;11.330;2022-10-15T03:53:13;8.60;;;6.78;;
29546;SDS011;40782;47.264;11.330;2022-10-15T03:55:40;7.55;;;6.72;;
29546;SDS011;40782;47.264;11.330;2022-10-15T03:58:07;7.43;;;6.30;;
29546;SDS011;40782;47.264;11.330;2022-10-15T04:00:36;9.23;;;6.88;;
29546;SDS011;40782;47.264;11.330;2022-10-15T04:03:07;10.75;;;6.88;;
29546;SDS011;40782;47.264;11.330;2022-10-15T04:05:34;8.13;;;6.95;;
29546;SDS011;40782;47.264;11.330;2022-10-15T04:08:02;8.40;;;6.68;;
29546;SDS011;40782;47.264;11.330;2022-10-15T04:10:29;7.50;;;6.80;;
29546;SDS011;40782;47.264;11.330;2022-10-15T04:12:56;7.80;;;7.00;;
29546;SDS011;40782;47.264;11.330;2022-10-15T04:15:23;7.93;;;7.13;;
29546;SDS011;40782;47.264;11.330;2022-10-15T04:17:53;9.30;;;6.40;;
29546;SDS011;40782;47.264;11.330;2022-10-15T04:20:21;12.18;;;10.60;;
29546;SDS011;40782;47.264;11.330;2022-10-15T04:22:48;21.17;;;16.33;;
29546;SDS011;40782;47.264;11.330;2022-10-15T04:25:16;13.60;;;9.40;;
29546;SDS011;40782;47.264;11.330;2022-10-15T04:27:43;11.80;;;6.40;;
29546;SDS011;40782;47.264;11.330;2022-10-15T04:30:11;7.57;;;6.20;;
29546;SDS011;40782;47.264;11.330;2022-10-15T04:32:39;7.88;;;6.90;;
29546;SDS011;40782;47.264;11.330;2022-10-15T04:35:08;6.97;;;6.13;;
29546;SDS011;40782;47.264;11.330;2022-10-15T04:37:36;8.40;;;6.82;;
29546;SDS011;40782;47.264;11.330;2022-10-15T04:40:03;7.22;;;6.10;;
29546;SDS011;40782;47.264;11.330;2022-10-15T04:42:31;7.55;;;6.78;;
29546;SDS011;40782;47.264;11.330;2022-10-15T04:44:59;9.32;;;7.13;;
29546;SDS011;40782;47.264;11.330;2022-10-15T04:47:26;8.60;;;7.18;;
29546;SDS011;40782;47.264;11.330;2022-10-15T04:49:53;9.35;;;7.93;;
29546;SDS011;40782;47.264;11.330;2022-10-15T04:52:22;9.15;;;7.10;;
29546;SDS011;40782;47.264;11.330;2022-10-15T04:54:49;8.05;;;6.95;;
29546;SDS011;40782;47.264;11.330;2022-10-15T04:57:17;7.63;;;6.68;;
29546;SDS011;40782;47.264;11.330;2022-10-15T04:59:44;6.65;;;6.07;;
29546;SDS011;40782;47.264;11.330;2022-10-15T05:02:11;6.50;;;5.90;;
29546;SDS011;40782;47.264;11.330;2022-10-15T05:04:39;6.68;;;6.05;;
29546;SDS011;40782;47.264;11.330;2022-10-15T05:07:07;6.50;;;5.63;;
29546;SDS011;40782;47.264;11.330;2022-10-15T05:09:35;9.27;;;6.40;;
29546;SDS011;40782;47.264;11.330;2022-10-15T05:12:03;7.97;;;5.70;;
29546;SDS011;40782;47.264;11.330;2022-10-15T05:14:30;6.18;;;5.57;;
29546;SDS011;40782;47.264;11.330;2022-10-15T05:16:57;6.72;;;6.03;;
29546;SDS011;40782;47.264;11.330;2022-10-15T05:19:25;7.30;;;6.60;;
29546;SDS011;40782;47.264;11.330;2022-10-15T05:21:52;7.47;;;6.53;;
29546;SDS011;40782;47.264;11.330;2022-10-15T05:24:19;6.55;;;5.60;;
29546;SDS011;40782;47.264;11.330;2022-10-15T05:26:48;11.02;;;9.52;;
29546;SDS011;40782;47.264;11.330;2022-10-15T05:29:15;15.00;;;11.35;;
29546;SDS011;40782;47.264;11.330;2022-10-15T05:31:42;18.77;;;16.63;;
29546;SDS011;40782;47.264;11.330;2022-10-15T05:34:10;13.45;;;12.15;;
29546;SDS011;40782;47.264;11.330;2022-10-15T05:36:38;11.55;;;10.38;;
29546;SDS011;40782;47.264;11.330;2022-10-15T05:39:06;9.50;;;8.68;;
29546;SDS011;40782;47.264;11.330;2022-10-15T05:41:35;8.60;;;6.30;;
29546;SDS011;40782;47.264;11.330;2022-10-15T05:44:03;8.82;;;6.47;;
29546;SDS011;40782;47.264;11.330;2022-10-15T05:46:31;8.40;;;5.78;;
29546;SDS011;40782;47.264;11.330;2022-10-15T05:48:58;6.20;;;5.68;;
29546;SDS011;40782;47.264;11.330;2022-10-15T05:51:26;7.10;;;6.28;;
29546;SDS011;40782;47.264;11.330;2022-10-15T05:53:54;6.70;;;5.75;;
29546;SDS011;40782;47.264;11.330;2022-10-15T05:56:22;9.45;;;5.97;;
29546;SDS011;40782;47.264;11.330;2022-10-15T05:58:50;6.85;;;6.15;;
29546;SDS011;40782;47.264;11.330;2022-10-15T06:01:19;6.22;;;5.47;;
29546;SDS011;40782;47.264;11.330;2022-10-15T06:03:46;10.18;;;6.30;;
29546;SDS011;40782;47.264;11.330;2022-10-15T06:06:14;6.68;;;5.55;;
29546;SDS011;40782;47.264;11.330;2022-10-15T06:08:44;8.38;;;5.80;;
29546;SDS011;40782;47.264;11.330;2022-10-15T06:11:12;6.25;;;4.95;;
29546;SDS011;40782;47.264;11.330;2022-10-15T06:13:40;4.97;;;4.55;;
29546;SDS011;40782;47.264;11.330;2022-10-15T06:16:09;7.00;;;6.32;;
29546;SDS011;40782;47.264;11.330;2022-10-15T06:18:38;6.47;;;5.97;;
29546;SDS011;40782;47.264;11.330;2022-10-15T06:21:06;6.70;;;6.10;;
29546;SDS011;40782;47.264;11.330;2022-10-15T06:23:34;7.40;;;6.13;;
29546;SDS011;40782;47.264;11.330;2022-10-15T06:26:02;8.30;;;5.63;;
29546;SDS011;40782;47.264;11.330;2022-10-15T06:28:30;7.05;;;6.30;;
29546;SDS011;40782;47.264;11.330;2022-10-15T06:30:57;7.22;;;5.45;;
29546;SDS011;40782;47.264;11.330;2022-10-15T06:33:25;7.30;;;5.93;;
29546;SDS011;40782;47.264;11.330;2022-10-15T06:35:55;8.88;;;7.57;;
29546;SDS011;40782;47.264;11.330;2022-10-15T06:38:27;7.88;;;6.55;;
29546;SDS011;40782;47.264;11.330;2022-10-15T06:40:55;6.60;;;5.88;;
29546;SDS011;40782;47.264;11.330;2022-10-15T06:43:22;6.00;;;5.50;;
29546;SDS011;40782;47.264;11.330;2022-10-15T06:45:50;8.73;;;6.20;;
29546;SDS011;40782;47.264;11.330;2022-10-15T06:48:17;12.98;;;6.55;;
29546;SDS011;40782;47.264;11.330;2022-10-15T06:50:44;6.75;;;5.75;;
29546;SDS011;40782;47.264;11.330;2022-10-15T06:53:13;6.90;;;6.15;;
29546;SDS011;40782;47.264;11.330;2022-10-15T06:55:41;7.18;;;6.03;;
29546;SDS011;40782;47.264;11.330;2022-10-15T06:58:08;9.18;;;5.82;;
29546;SDS011;40782;47.264;11.330;2022-10-15T07:00:35;6.22;;;5.50;;
29546;SDS011;40782;47.264;11.330;2022-10-15T07:03:03;5.68;;;5.13;;
29546;SDS011;40782;47.264;11.330;2022-10-15T07:05:30;5.78;;;5.28;;
29546;SDS011;40782;47.264;11.330;2022-10-15T07:07:58;5.78;;;4.85;;
29546;SDS011;40782;47.264;11.330;2022-10-15T07:10:27;8.82;;;5.35;;
29546;SDS011;40782;47.264;11.330;2022-10-15T07:12:55;8.55;;;5.63;;
29546;SDS011;40782;47.264;11.330;2022-10-15T07:15:26;5.72;;;5.22;;
29546;SDS011;40782;47.264;11.330;2022-10-15T07:17:53;5.20;;;4.70;;
29546;SDS011;40782;47.264;11.330;2022-10-15T07:22:54;7.05;;;5.72;;
29546;SDS011;40782;47.264;11.330;2022-10-15T07:25:22;7.30;;;5.03;;
29546;SDS011;40782;47.264;11.330;2022-10-15T07:27:51;7.90;;;5.35;;
29546;SDS011;40782;47.264;11.330;2022-10-15T07:30:19;5.57;;;4.47;;
29546;SDS011;40782;47.264;11.330;2022-10-15T07:32:48;5.22;;;4.63;;
29546;SDS011;40782;47.264;11.330;2022-10-15T07:35:15;5.05;;;4.60;;
29546;SDS011;40782;47.264;11.330;2022-10-15T07:37:43;7.95;;;4.93;;
29546;SDS011;40782;47.264;11.330;2022-10-15T07:40:11;4.65;;;4.03;;
29546;SDS011;40782;47.264;11.330;2022-10-15T07:42:39;5.30;;;4.32;;
29546;SDS011;40782;47.264;11.330;2022-10-15T07:45:09;6.68;;;4.88;;
29546;SDS011;40782;47.264;11.330;2022-10-15T07:47:38;5.22;;;4.60;;
29546;SDS011;40782;47.264;11.330;2022-10-15T07:50:07;4.85;;;4.45;;
29546;SDS011;40782;47.264;11.330;2022-10-15T07:52:35;5.57;;;5.07;;
29546;SDS011;40782;47.264;11.330;2022-10-15T07:55:02;4.75;;;4.30;;
29546;SDS011;40782;47.264;11.330;2022-10-15T07:57:30;5.45;;;4.15;;
29546;SDS011;40782;47.264;11.330;2022-10-15T07:59:57;5.93;;;4.63;;
29546;SDS011;40782;47.264;11.330;2022-10-15T08:02:26;4.47;;;4.07;;
29546;SDS011;40782;47.264;11.330;2022-10-15T08:04:53;5.75;;;4.97;;
29546;SDS011;40782;47.264;11.330;2022-10-15T08:07:20;5.30;;;4.90;;
29546;SDS011;40782;47.264;11.330;2022-10-15T08:09:47;4.80;;;4.00;;
29546;SDS011;40782;47.264;11.330;2022-10-15T08:12:15;4.35;;;3.95;;
29546;SDS011;40782;47.264;11.330;2022-10-15T08:14:42;4.30;;;3.90;;
29546;SDS011;40782;47.264;11.330;2022-10-15T08:17:10;6.55;;;4.30;;
29546;SDS011;40782;47.264;11.330;2022-10-15T08:19:39;5.00;;;4.43;;
29546;SDS011;40782;47.264;11.330;2022-10-15T08:22:07;6.65;;;4.97;;
29546;SDS011;40782;47.264;11.330;2022-10-15T08:24:35;8.07;;;5.30;;
29546;SDS011;40782;47.264;11.330;2022-10-15T08:27:02;6.00;;;4.93;;
29546;SDS011;40782;47.264;11.330;2022-10-15T08:29:29;4.80;;;4.40;;
29546;SDS011;40782;47.264;11.330;2022-10-15T08:31:57;6.22;;;5.57;;
29546;SDS011;40782;47.264;11.330;2022-10-15T08:34:24;6.50;;;4.97;;
29546;SDS011;40782;47.264;11.330;2022-10-15T08:36:53;5.25;;;4.75;;
29546;SDS011;40782;47.264;11.330;2022-10-15T08:39:22;6.63;;;4.50;;
29546;SDS011;40782;47.264;11.330;2022-10-15T08:41:50;7.72;;;4.82;;
29546;SDS011;40782;47.264;11.330;2022-10-15T08:44:20;4.70;;;4.10;;
29546;SDS011;40782;47.264;11.330;2022-10-15T08:46:51;6.43;;;4.40;;
29546;SDS011;40782;47.264;11.330;2022-10-15T08:49:32;4.80;;;4.40;;
29546;SDS011;40782;47.264;11.330;2022-10-15T08:52:13;5.60;;;5.10;;
29546;SDS011;40782;47.264;11.330;2022-10-15T08:54:46;5.97;;;4.80;;
29546;SDS011;40782;47.264;11.330;2022-10-15T08:57:18;7.90;;;4.90;;
29546;SDS011;40782;47.264;11.330;2022-10-15T08:59:53;6.47;;;4.80;;
29546;SDS011;40782;47.264;11.330;2022-10-15T09:02:25;5.05;;;4.65;;
29546;SDS011;40782;47.264;11.330;2022-10-15T09:04:59;5.22;;;4.72;;
29546;SDS011;40782;47.264;11.330;2022-10-15T09:07:38;5.22;;;4.68;;
29546;SDS011;40782;47.264;11.330;2022-10-15T09:10:11;7.97;;;5.63;;
29546;SDS011;40782;47.264;11.330;2022-10-15T09:12:45;7.38;;;4.78;;
29546;SDS011;40782;47.264;11.330;2022-10-15T09:15:19;6.32;;;4.90;;
29546;SDS011;40782;47.264;11.330;2022-10-15T09:17:48;6.28;;;5.10;;
29546;SDS011;40782;47.264;11.330;2022-10-15T09:20:19;5.07;;;4.57;;
29546;SDS011;40782;47.264;11.330;2022-10-15T09:22:52;6.93;;;4.38;;
29546;SDS011;40782;47.264;11.330;2022-10-15T09:25:20;5.43;;;3.88;;
29546;SDS011;40782;47.264;11.330;2022-10-15T09:27:49;5.32;;;3.72;;
29546;SDS011;40782;47.264;11.330;2022-10-15T09:30:26;6.18;;;4.40;;
29546;SDS011;40782;47.264;11.330;2022-10-15T09:35:32;4.50;;;4.10;;
29546;SDS011;40782;47.264;11.330;2022-10-15T09:38:08;4.85;;;4.28;;
29546;SDS011;40782;47.264;11.330;2022-10-15T09:40:55;5.75;;;3.85;;
29546;SDS011;40782;47.264;11.330;2022-10-15T09:43:35;5.07;;;4.43;;
29546;SDS011;40782;47.264;11.330;2022-10-15T09:46:05;4.57;;;4.18;;
29546;SDS011;40782;47.264;11.330;2022-10-15T09:48:35;4.65;;;4.18;;
29546;SDS011;40782;47.264;11.330;2022-10-15T09:51:12;4.30;;;3.90;;
29546;SDS011;40782;47.264;11.330;2022-10-15T09:53:51;3.63;;;3.22;;
29546;SDS011;40782;47.264;11.330;2022-10-15T09:56:26;4.97;;;3.47;;
29546;SDS011;40782;47.264;11.330;2022-10-15T09:58:59;3.33;;;3.03;;
29546;SDS011;40782;47.264;11.330;2022-10-15T10:01:27;3.20;;;3.00;;
29546;SDS011;40782;47.264;11.330;2022-10-15T10:04:07;3.28;;;2.97;;
29546;SDS011;40782;47.264;11.330;2022-10-15T10:06:42;6.43;;;3.00;;
29546;SDS011;40782;47.264;11.330;2022-10-15T10:09:15;5.20;;;2.78;;
29546;SDS011;40782;47.264;11.330;2022-10-15T10:11:45;2.83;;;2.20;;
29546;SDS011;40782;47.264;11.330;2022-10-15T10:14:20;2.60;;;2.40;;
29546;SDS011;40782;47.264;11.330;2022-10-15T10:19:44;2.45;;;2.03;;
29546;SDS011;40782;47.264;11.330;2022-10-15T10:22:30;2.03;;;1.90;;
29546;SDS011;40782;47.264;11.330;2022-10-15T10:25:21;2.20;;;2.00;;
29546;SDS011;40782;47.264;11.330;2022-10-15T10:27:53;2.85;;;1.98;;
29546;SDS011;40782;47.264;11.330;2022-10-15T10:30:21;2.15;;;1.90;;
29546;SDS011;40782;47.264;11.330;2022-10-15T10:32:53;2.03;;;1.92;;
29546;SDS011;40782;47.264;11.330;2022-10-15T10:35:23;2.10;;;1.90;;
29546;SDS011;40782;47.264;11.330;2022-10-15T10:37:51;1.88;;;1.77;;
29546;SDS011;40782;47.264;11.330;2022-10-15T10:40:23;3.05;;;1.80;;
29546;SDS011;40782;47.264;11.330;2022-10-15T10:43:11;1.80;;;1.70;;
29546;SDS011;40782;47.264;11.330;2022-10-15T10:45:51;3.78;;;1.95;;
29546;SDS011;40782;47.264;11.330;2022-10-15T10:48:23;2.75;;;1.70;;
29546;SDS011;40782;47.264;11.330;2022-10-15T10:51:03;2.78;;;2.58;;
29546;SDS011;40782;47.264;11.330;2022-10-15T10:53:33;1.60;;;1.50;;
29546;SDS011;40782;47.264;11.330;2022-10-15T10:56:11;1.80;;;1.70;;
29546;SDS011;40782;47.264;11.330;2022-10-15T10:58:40;2.08;;;1.80;;
29546;SDS011;40782;47.264;11.330;2022-10-15T11:01:09;2.70;;;2.50;;
29546;SDS011;40782;47.264;11.330;2022-10-15T11:03:38;2.30;;;2.10;;
29546;SDS011;40782;47.264;11.330;2022-10-15T11:06:17;1.92;;;1.83;;
29546;SDS011;40782;47.264;11.330;2022-10-15T11:09:10;2.00;;;1.90;;
29546;SDS011;40782;47.264;11.330;2022-10-15T11:11:48;2.72;;;1.60;;
29546;SDS011;40782;47.264;11.330;2022-10-15T11:14:26;1.45;;;1.35;;
29546;SDS011;40782;47.264;11.330;2022-10-15T11:17:01;1.65;;;1.55;;
29546;SDS011;40782;47.264;11.330;2022-10-15T11:19:37;2.58;;;1.77;;
29546;SDS011;40782;47.264;11.330;2022-10-15T11:22:20;1.50;;;1.40;;
29546;SDS011;40782;47.264;11.330;2022-10-15T11:25:02;1.80;;;1.70;;
29546;SDS011;40782;47.264;11.330;2022-10-15T11:27:45;3.47;;;1.48;;
29546;SDS011;40782;47.264;11.330;2022-10-15T11:30:27;1.73;;;1.60;;
29546;SDS011;40782;47.264;11.330;2022-10-15T11:33:04;2.65;;;1.90;;
29546;SDS011;40782;47.264;11.330;2022-10-15T11:35:47;1.88;;;1.77;;
29546;SDS011;40782;47.264;11.330;2022-10-15T11:38:25;2.42;;;1.85;;
29546;SDS011;40782;47.264;11.330;2022-10-15T11:41:08;2.25;;;2.00;;
29546;SDS011;40782;47.264;11.330;2022-10-15T11:43:50;3.63;;;1.90;;
29546;SDS011;40782;47.264;11.330;2022-10-15T11:46:46;2.80;;;1.90;;
29546;SDS011;40782;47.264;11.330;2022-10-15T11:49:24;4.35;;;1.75;;
29546;SDS011;40782;47.264;11.330;2022-10-15T11:52:06;2.47;;;1.98;;
29546;SDS011;40782;47.264;11.330;2022-10-15T11:54:58;2.25;;;2.05;;
29546;SDS011;40782;47.264;11.330;2022-10-15T11:57:30;2.10;;;1.90;;
29546;SDS011;40782;47.264;11.330;2022-10-15T12:00:08;2.30;;;1.50;;
29546;SDS011;40782;47.264;11.330;2022-10-15T12:02:44;1.90;;;1.77;;
29546;SDS011;40782;47.264;11.330;2022-10-15T12:05:16;2.00;;;1.90;;
29546;SDS011;40782;47.264;11.330;2022-10-15T12:07:47;2.40;;;2.00;;
29546;SDS011;40782;47.264;11.330;2022-10-15T12:10:19;2.03;;;1.92;;
29546;SDS011;40782;47.264;11.330;2022-10-15T12:13:00;2.83;;;2.10;;
29546;SDS011;40782;47.264;11.330;2022-10-15T12:15:49;3.15;;;2.85;;
29546;SDS011;40782;47.264;11.330;2022-10-15T12:18:24;4.28;;;2.80;;
29546;SDS011;40782;47.264;11.330;2022-10-15T12:21:00;3.17;;;2.97;;
29546;SDS011;40782;47.264;11.330;2022-10-15T12:23:38;3.28;;;3.03;;
29546;SDS011;40782;47.264;11.330;2022-10-15T12:28:54;4.47;;;3.05;;
29546;SDS011;40782;47.264;11.330;2022-10-15T12:31:24;5.72;;;3.03;;
29546;SDS011;40782;47.264;11.330;2022-10-15T12:34:20;2.92;;;2.50;;
29546;SDS011;40782;47.264;11.330;2022-10-15T12:36:58;3.40;;;2.58;;
29546;SDS011;40782;47.264;11.330;2022-10-15T12:39:30;3.13;;;2.90;;
29546;SDS011;40782;47.264;11.330;2022-10-15T12:41:57;3.53;;;2.85;;
29546;SDS011;40782;47.264;11.330;2022-10-15T12:44:26;4.82;;;2.60;;
29546;SDS011;40782;47.264;11.330;2022-10-15T12:46:57;3.13;;;2.55;;
29546;SDS011;40782;47.264;11.330;2022-10-15T12:55:20;3.22;;;2.95;;
29546;SDS011;40782;47.264;11.330;2022-10-15T12:57:54;3.70;;;3.00;;
29546;SDS011;40782;47.264;11.330;2022-10-15T13:00:32;2.95;;;2.75;;
29546;SDS011;40782;47.264;11.330;2022-10-15T13:03:13;2.65;;;2.42;;
29546;SDS011;40782;47.264;11.330;2022-10-15T13:06:03;3.35;;;2.35;;
29546;SDS011;40782;47.264;11.330;2022-10-15T13:08:41;2.97;;;2.45;;
29546;SDS011;40782;47.264;11.330;2022-10-15T13:11:17;2.25;;;2.15;;
29546;SDS011;40782;47.264;11.330;2022-10-15T13:13:48;2.45;;;2.22;;
29546;SDS011;40782;47.264;11.330;2022-10-15T13:16:16;3.20;;;2.58;;
29546;SDS011;40782;47.264;11.330;2022-10-15T13:18:48;2.50;;;2.30;;
29546;SDS011;40782;47.264;11.330;2022-10-15T13:21:17;2.70;;;2.50;;
29546;SDS011;40782;47.264;11.330;2022-10-15T13:23:45;3.08;;;2.60;;
29546;SDS011;40782;47.264;11.330;2022-10-15T13:26:17;2.70;;;2.50;;
29546;SDS011;40782;47.264;11.330;2022-10-15T13:28:47;2.70;;;2.50;;
29546;SDS011;40782;47.264;11.330;2022-10-15T13:31:20;4.32;;;2.63;;
29546;SDS011;40782;47.264;11.330;2022-10-15T13:33:51;4.20;;;2.92;;
29546;SDS011;40782;47.264;11.330;2022-10-15T13:36:22;3.13;;;2.83;;
29546;SDS011;40782;47.264;11.330;2022-10-15T13:38:52;3.37;;;2.93;;
29546;SDS011;40782;47.264;11.330;2022-10-15T13:41:25;4.28;;;2.72;;
29546;SDS011;40782;47.264;11.330;2022-10-15T13:43:54;3.25;;;2.95;;
29546;SDS011;40782;47.264;11.330;2022-10-15T13:46:25;4.10;;;2.72;;
29546;SDS011;40782;47.264;11.330;2022-10-15T13:48:59;3.67;;;2.78;;
29546;SDS011;40782;47.264;11.330;2022-10-15T13:51:32;3.47;;;3.17;;
29546;SDS011;40782;47.264;11.330;2022-10-15T13:54:06;2.85;;;2.65;;
29546;SDS011;40782;47.264;11.330;2022-10-15T13:56:36;4.88;;;3.55;;
29546;SDS011;40782;47.264;11.330;2022-10-15T13:59:11;4.18;;;3.67;;
29546;SDS011;40782;47.264;11.330;2022-10-15T14:01:46;5.32;;;3.67;;
29546;SDS011;40782;47.264;11.330;2022-10-15T14:04:16;4.57;;;3.83;;
29546;SDS011;40782;47.264;11.330;2022-10-15T14:06:53;4.95;;;3.25;;
29546;SDS011;40782;47.264;11.330;2022-10-15T14:09:26;3.88;;;3.47;;
29546;SDS011;40782;47.264;11.330;2022-10-15T14:11:56;6.05;;;4.00;;
29546;SDS011;40782;47.264;11.330;2022-10-15T14:14:31;4.55;;;3.80;;
29546;SDS011;40782;47.264;11.330;2022-10-15T14:17:00;3.78;;;3.40;;
29546;SDS011;40782;47.264;11.330;2022-10-15T14:19:31;5.50;;;4.20;;
29546;SDS011;40782;47.264;11.330;2022-10-15T14:22:01;5.53;;;4.15;;
29546;SDS011;40782;47.264;11.330;2022-10-15T14:24:30;4.43;;;3.58;;
29546;SDS011;40782;47.264;11.330;2022-10-15T14:27:01;4.97;;;4.45;;
29546;SDS011;40782;47.264;11.330;2022-10-15T14:29:34;4.72;;;4.07;;
29546;SDS011;40782;47.264;11.330;2022-10-15T14:32:22;6.13;;;4.35;;
29546;SDS011;40782;47.264;11.330;2022-10-15T14:34:53;4.57;;;4.18;;
29546;SDS011;40782;47.264;11.330;2022-10-15T14:37:28;4.13;;;3.80;;
29546;SDS011;40782;47.264;11.330;2022-10-15T14:40:13;6.18;;;5.57;;
29546;SDS011;40782;47.264;11.330;2022-10-15T14:42:44;5.25;;;4.75;;
29546;SDS011;40782;47.264;11.330;2022-10-15T14:45:17;10.20;;;8.02;;
29546;SDS011;40782;47.264;11.330;2022-10-15T14:47:47;5.70;;;5.15;;
29546;SDS011;40782;47.264;11.330;2022-10-15T14:50:19;7.90;;;5.70;;
29546;SDS011;40782;47.264;11.330;2022-10-15T14:52:51;6.72;;;4.20;;
29546;SDS011;40782;47.264;11.330;2022-10-15T14:55:27;3.67;;;3.38;;
29546;SDS011;40782;47.264;11.330;2022-10-15T14:57:57;3.60;;;3.30;;
29546;SDS011;40782;47.264;11.330;2022-10-15T15:00:26;3.65;;;3.35;;
29546;SDS011;40782;47.264;11.330;2022-10-15T15:02:58;3.92;;;3.53;;
29546;SDS011;40782;47.264;11.330;2022-10-15T15:05:29;3.85;;;3.30;;
29546;SDS011;40782;47.264;11.330;2022-10-15T15:08:10;3.80;;;3.15;;
29546;SDS011;40782;47.264;11.330;2022-10-15T15:10:38;4.10;;;3.40;;
29546;SDS011;40782;47.264;11.330;2022-10-15T15:13:06;4.57;;;3.30;;
29546;SDS011;40782;47.264;11.330;2022-10-15T15:15:36;3.67;;;3.33;;
29546;SDS011;40782;47.264;11.330;2022-10-15T15:18:07;3.25;;;2.85;;
29546;SDS011;40782;47.264;11.330;2022-10-15T15:20:37;4.22;;;3.30;;